This is the latest recevied weather packets stored in our database for station/object KQ4WWD. If no packets are shown the sender has not sent any weather packets the latest 10 day(s).
| Time | Temp. | Humidity | Pressure | Rain* | Wind** | Luminosity | Snow |
|---|---|---|---|---|---|---|---|
| 1788108161 | 32.22° C | 72% | 1017.8 hPa | 0 mm | - | 817 W/m² | - |
| 1788107857 | 32.78° C | 71% | 1017.7 hPa | 0 mm | - | 788 W/m² | - |
| 1788107553 | 32.22° C | 73% | 1017.8 hPa | 0 mm | - | 361 W/m² | - |
| 1788107247 | 32.78° C | 71% | 1017.9 hPa | 0 mm | - | 357 W/m² | - |
| 1788106944 | 32.78° C | 69% | 1017.7 hPa | 0 mm | - | 787 W/m² | - |
| 1788106639 | 32.78° C | 70% | 1018 hPa | 0 mm | - | 809 W/m² | - |
| 1788106333 | 32.78° C | 71% | 1018 hPa | 0 mm | - | 773 W/m² | - |
| 1788106029 | 32.22° C | 72% | 1018 hPa | 0 mm | - | 747 W/m² | - |
| 1788105729 | 32.22° C | 74% | 1017.9 hPa | 0 mm | - | 781 W/m² | - |
| 1788105426 | 32.22° C | 74% | 1018.1 hPa | 0 mm | - | 741 W/m² | - |
| 1788105121 | 32.22° C | 74% | 1018.1 hPa | 0 mm | - | 744 W/m² | - |
| 1788104816 | 32.22° C | 74% | 1018.2 hPa | 0 mm | - | 333 W/m² | - |
| 1788104512 | 31.67° C | 74% | 1018.5 hPa | 0 mm | - | 812 W/m² | - |
| 1788104209 | 31.11° C | 77% | 1018.4 hPa | 0 mm | - | 912 W/m² | - |
| 1788103908 | 30.56° C | 78% | 1018.5 hPa | 0 mm | - | 242 W/m² | - |
| 1788103607 | 30.56° C | 78% | 1018.5 hPa | 0 mm | - | 553 W/m² | - |
| 1788103306 | 31.11° C | 76% | 1018.5 hPa | 0 mm | - | 503 W/m² | - |
| 1788103002 | 31.67° C | 73% | 1018.6 hPa | 0 mm | - | 161 W/m² | - |
| 1788102702 | 30.56° C | 78% | 1018.7 hPa | 0 mm | - | 881 W/m² | - |
| 1788102402 | 30° C | 79% | 1018.8 hPa | 0 mm | - | 688 W/m² | - |
| 1788102096 | 30° C | 80% | 1018.8 hPa | 0 mm | - | 228 W/m² | - |
| 1788101796 | 30° C | 80% | 1018.6 hPa | 0 mm | - | 271 W/m² | - |
| 1788101491 | 30.56° C | 79% | 1018.8 hPa | 0 mm | - | 183 W/m² | - |
| 1788101187 | 30° C | 80% | 1018.8 hPa | 0 mm | - | 814 W/m² | - |
| 1788100894 | 30.56° C | 79% | 1018.9 hPa | 0 mm | - | 237 W/m² | - |
* Rain latest hour (hover to see other rain measurements)
** Current wind speed in m/s (hover to see current wind gust speed)